Time;durP1;ratioP1;P1;durP2;ratioP2;P2;SDS_P1;SDS_P2;PMS_P1;PMS_P2;Temp;Humidity;BMP_temperature;BMP_pressure;BME280_temperature;BME280_humidity;BME280_pressure;Samples;Min_cycle;Max_cycle;Signal;HPM_P1;HPM_P2
2022/10/24 00:02:14;;;;;;;2.65;0.82;;;;;;;;;;5014853;28;20045;-52
2022/10/24 00:04:39;;;;;;;1.30;0.70;;;;;;;;;;5019747;28;20061;-57
2022/10/24 00:07:06;;;;;;;1.80;0.70;;;;;;;;;;5019561;28;20054;-57
2022/10/24 00:09:32;;;;;;;1.67;0.73;;;;;;;;;;5009043;28;20042;-54
2022/10/24 00:11:57;;;;;;;2.60;0.70;;;;;;;;;;5013539;28;20385;-53
2022/10/24 00:14:23;;;;;;;1.90;0.70;;;;;;;;;;5006798;28;20041;-59
2022/10/24 00:16:48;;;;;;;1.80;0.80;;;;;;;;;;5015644;28;20470;-52
2022/10/24 00:19:14;;;;;;;1.00;0.60;;;;;;;;;;5013569;28;20030;-55
2022/10/24 00:21:39;;;;;;;1.17;0.77;;;;;;;;;;5015125;28;20037;-57
2022/10/24 00:24:05;;;;;;;1.50;0.70;;;;;;;;;;5017579;28;20033;-52
2022/10/24 00:26:31;;;;;;;1.10;0.60;;;;;;;;;;5001407;28;20030;-54
2022/10/24 00:28:57;;;;;;;1.40;0.70;;;;;;;;;;5005803;28;20033;-55
2022/10/24 00:31:22;;;;;;;2.10;0.80;;;;;;;;;;5022496;28;20061;-55
2022/10/24 00:33:47;;;;;;;1.08;0.70;;;;;;;;;;5015575;28;20393;-54
2022/10/24 00:36:16;;;;;;;1.92;0.70;;;;;;;;;;5027318;28;20041;-55
2022/10/24 00:38:42;;;;;;;1.88;0.88;;;;;;;;;;5014799;28;20033;-54
2022/10/24 00:41:08;;;;;;;1.20;0.70;;;;;;;;;;5019710;28;20480;-53
2022/10/24 00:43:33;;;;;;;2.22;0.70;;;;;;;;;;5023027;28;20523;-54
2022/10/24 00:46:01;;;;;;;1.42;0.60;;;;;;;;;;5007217;28;20065;-53
2022/10/24 00:48:33;;;;;;;1.17;0.70;;;;;;;;;;5012131;28;20112;-54
2022/10/24 00:51:07;;;;;;;1.20;0.60;;;;;;;;;;5017344;28;20042;-55
2022/10/24 00:53:37;;;;;;;1.92;0.93;;;;;;;;;;5013274;28;20088;-55
2022/10/24 00:56:04;;;;;;;1.00;0.60;;;;;;;;;;5030704;28;20125;-53
2022/10/24 00:58:31;;;;;;;1.88;0.70;;;;;;;;;;5013014;28;20065;-51
2022/10/24 01:00:57;;;;;;;1.13;0.68;;;;;;;;;;5018472;28;20116;-54
2022/10/24 01:03:22;;;;;;;1.83;0.80;;;;;;;;;;5003508;28;20065;-54
2022/10/24 01:05:58;;;;;;;1.27;0.70;;;;;;;;;;5016050;28;20048;-50
2022/10/24 01:08:29;;;;;;;1.65;0.70;;;;;;;;;;4997640;28;20070;-52
2022/10/24 01:11:22;;;;;;;0.98;0.52;;;;;;;;;;5016055;28;20029;-52
2022/10/24 01:13:57;;;;;;;1.20;0.60;;;;;;;;;;5015674;28;20042;-56
2022/10/24 01:16:49;;;;;;;1.67;0.80;;;;;;;;;;5013323;28;20478;-55
2022/10/24 01:19:29;;;;;;;1.15;0.70;;;;;;;;;;5028120;28;20034;-55
2022/10/24 01:21:58;;;;;;;1.00;0.60;;;;;;;;;;5011937;28;20049;-54
2022/10/24 01:24:42;;;;;;;1.58;0.73;;;;;;;;;;5021962;28;20065;-55
2022/10/24 01:27:19;;;;;;;1.42;0.80;;;;;;;;;;5015319;28;20038;-53
2022/10/24 01:29:56;;;;;;;1.30;0.77;;;;;;;;;;5014687;28;20034;-54
2022/10/24 01:32:51;;;;;;;4.13;0.77;;;;;;;;;;5035569;28;20041;-54
2022/10/24 01:35:35;;;;;;;1.38;0.75;;;;;;;;;;5009811;28;20095;-55
2022/10/24 01:38:01;;;;;;;1.35;0.70;;;;;;;;;;4999797;28;20508;-51
2022/10/24 01:40:45;;;;;;;1.75;0.90;;;;;;;;;;5016174;28;20121;-53
2022/10/24 01:43:13;;;;;;;1.10;0.70;;;;;;;;;;5023810;28;20030;-55
2022/10/24 01:45:41;;;;;;;2.90;0.70;;;;;;;;;;5019772;28;20045;-54
2022/10/24 01:48:09;;;;;;;1.50;0.90;;;;;;;;;;5020125;28;20474;-54
2022/10/24 01:50:36;;;;;;;1.70;0.80;;;;;;;;;;5012290;28;20038;-54
2022/10/24 01:53:02;;;;;;;1.50;0.70;;;;;;;;;;5003570;28;20034;-54
2022/10/24 01:55:30;;;;;;;2.17;0.60;;;;;;;;;;5022554;28;20108;-55
2022/10/24 01:57:56;;;;;;;1.38;0.70;;;;;;;;;;5019420;28;20399;-53
2022/10/24 02:00:22;;;;;;;1.42;0.60;;;;;;;;;;5020006;28;20044;-54
2022/10/24 02:03:17;;;;;;;0.73;0.60;;;;;;;;;;5014885;28;20051;-55
2022/10/24 02:05:46;;;;;;;0.93;0.50;;;;;;;;;;5018770;28;20501;-55
2022/10/24 02:08:16;;;;;;;1.33;0.57;;;;;;;;;;5009577;28;20057;-53
2022/10/24 02:10:46;;;;;;;2.42;0.50;;;;;;;;;;5031988;28;20042;-57
2022/10/24 02:13:21;;;;;;;1.67;0.80;;;;;;;;;;5022455;28;20048;-51
2022/10/24 02:15:49;;;;;;;1.55;0.70;;;;;;;;;;5032148;28;20056;-56
2022/10/24 02:18:15;;;;;;;0.95;0.50;;;;;;;;;;5014538;28;20041;-56
2022/10/24 02:20:54;;;;;;;1.60;0.73;;;;;;;;;;5013117;28;20048;-56
2022/10/24 02:23:31;;;;;;;1.10;0.52;;;;;;;;;;5011112;28;20041;-51
2022/10/24 02:25:59;;;;;;;2.25;0.90;;;;;;;;;;5022307;28;20034;-52
2022/10/24 02:28:29;;;;;;;1.33;0.60;;;;;;;;;;5010973;28;20046;-51
2022/10/24 02:31:02;;;;;;;1.00;0.60;;;;;;;;;;5017298;28;20033;-50
2022/10/24 02:33:28;;;;;;;1.30;0.70;;;;;;;;;;5014114;28;20040;-53
2022/10/24 02:35:53;;;;;;;1.77;0.60;;;;;;;;;;5023162;28;20037;-53
2022/10/24 02:38:23;;;;;;;0.80;0.50;;;;;;;;;;5008398;28;20069;-54
2022/10/24 02:40:50;;;;;;;0.90;0.45;;;;;;;;;;5016967;28;20128;-51
2022/10/24 02:43:16;;;;;;;1.77;0.70;;;;;;;;;;5017204;28;20544;-54
2022/10/24 02:45:42;;;;;;;1.98;0.70;;;;;;;;;;5018566;28;20173;-55
2022/10/24 02:48:10;;;;;;;1.40;0.70;;;;;;;;;;5008656;28;20045;-50
2022/10/24 02:50:38;;;;;;;1.13;0.52;;;;;;;;;;5010294;28;20030;-55
2022/10/24 02:53:04;;;;;;;1.00;0.60;;;;;;;;;;5012861;28;20088;-53
2022/10/24 02:55:29;;;;;;;1.20;0.70;;;;;;;;;;5021820;28;20045;-51
2022/10/24 02:57:55;;;;;;;0.80;0.55;;;;;;;;;;5014816;28;20095;-55
2022/10/24 03:00:21;;;;;;;1.38;0.70;;;;;;;;;;5017265;28;20104;-54
2022/10/24 03:02:47;;;;;;;1.02;0.60;;;;;;;;;;5012837;28;20067;-54
2022/10/24 03:05:12;;;;;;;1.02;0.60;;;;;;;;;;5014110;28;20097;-53
2022/10/24 03:07:37;;;;;;;0.88;0.50;;;;;;;;;;5009420;28;20049;-54
2022/10/24 03:10:03;;;;;;;2.10;0.75;;;;;;;;;;5004419;28;20034;-53
2022/10/24 03:12:29;;;;;;;0.68;0.50;;;;;;;;;;5012497;28;20065;-52
2022/10/24 03:14:54;;;;;;;0.70;0.50;;;;;;;;;;5011658;28;20042;-54
2022/10/24 03:17:20;;;;;;;0.95;0.57;;;;;;;;;;5014715;28;20072;-53
2022/10/24 03:19:46;;;;;;;1.10;0.63;;;;;;;;;;5011596;28;20589;-55
2022/10/24 03:22:11;;;;;;;1.25;0.60;;;;;;;;;;5011314;28;20034;-54
2022/10/24 03:24:37;;;;;;;2.13;0.70;;;;;;;;;;5010517;28;20041;-53
2022/10/24 03:27:02;;;;;;;0.55;0.45;;;;;;;;;;5014310;28;20042;-53
2022/10/24 03:29:27;;;;;;;1.77;0.70;;;;;;;;;;5014314;28;20026;-54
2022/10/24 03:31:53;;;;;;;1.05;0.57;;;;;;;;;;5016493;28;20046;-51
2022/10/24 03:34:18;;;;;;;1.10;0.60;;;;;;;;;;5012593;28;20136;-55
2022/10/24 03:36:44;;;;;;;1.00;0.50;;;;;;;;;;5013946;28;20442;-53
2022/10/24 03:39:09;;;;;;;1.52;0.70;;;;;;;;;;5014048;28;20156;-52
2022/10/24 03:41:34;;;;;;;0.70;0.52;;;;;;;;;;5019106;28;20120;-55
2022/10/24 03:44:00;;;;;;;0.60;0.50;;;;;;;;;;5010568;28;20088;-54
2022/10/24 03:46:26;;;;;;;0.80;0.60;;;;;;;;;;5019183;28;20500;-55
2022/10/24 03:48:51;;;;;;;1.27;0.60;;;;;;;;;;5012925;28;20034;-51
2022/10/24 03:51:17;;;;;;;1.33;0.70;;;;;;;;;;5016012;28;20076;-54
2022/10/24 03:53:42;;;;;;;0.90;0.60;;;;;;;;;;5014821;28;20049;-53
2022/10/24 03:56:07;;;;;;;1.05;0.70;;;;;;;;;;5002204;28;20069;-54
2022/10/24 03:58:33;;;;;;;1.10;0.52;;;;;;;;;;5012581;28;20409;-52
2022/10/24 04:00:58;;;;;;;1.42;0.60;;;;;;;;;;5019584;28;20072;-50
2022/10/24 04:03:27;;;;;;;1.60;0.70;;;;;;;;;;5014374;28;20469;-55
2022/10/24 04:05:53;;;;;;;1.42;0.60;;;;;;;;;;5022250;28;20115;-53
2022/10/24 04:08:19;;;;;;;1.10;0.60;;;;;;;;;;5002673;28;20074;-55
2022/10/24 04:10:44;;;;;;;0.60;0.50;;;;;;;;;;5029317;28;20041;-55
2022/10/24 04:13:10;;;;;;;2.35;0.60;;;;;;;;;;5014361;28;20458;-55
2022/10/24 04:15:35;;;;;;;2.28;0.60;;;;;;;;;;5018383;28;20048;-55
2022/10/24 04:18:01;;;;;;;0.80;0.50;;;;;;;;;;5002840;28;20042;-54
2022/10/24 04:20:26;;;;;;;1.08;0.60;;;;;;;;;;5015847;28;20034;-54
2022/10/24 04:22:52;;;;;;;1.33;0.60;;;;;;;;;;5013410;28;20092;-50
2022/10/24 04:25:17;;;;;;;0.80;0.50;;;;;;;;;;5020293;28;20076;-55
2022/10/24 04:27:44;;;;;;;0.98;0.65;;;;;;;;;;5005498;28;20049;-51
2022/10/24 04:30:11;;;;;;;2.28;0.60;;;;;;;;;;5005250;28;20073;-52
2022/10/24 04:32:36;;;;;;;0.98;0.60;;;;;;;;;;5019434;28;20433;-50
2022/10/24 04:35:03;;;;;;;1.50;0.50;;;;;;;;;;5006652;28;20045;-56
2022/10/24 04:37:28;;;;;;;0.60;0.47;;;;;;;;;;5007470;28;20037;-52
2022/10/24 04:39:54;;;;;;;1.38;0.70;;;;;;;;;;5013763;28;20042;-55
2022/10/24 04:42:20;;;;;;;0.85;0.50;;;;;;;;;;5013454;28;20038;-52
2022/10/24 04:44:46;;;;;;;0.65;0.50;;;;;;;;;;5022165;28;20038;-55
2022/10/24 04:47:11;;;;;;;0.88;0.50;;;;;;;;;;5007557;28;20045;-53
2022/10/24 04:49:37;;;;;;;0.82;0.60;;;;;;;;;;5008780;28;20030;-50
2022/10/24 04:52:02;;;;;;;0.50;0.50;;;;;;;;;;5012844;28;20042;-56
2022/10/24 04:54:28;;;;;;;1.08;0.50;;;;;;;;;;5013950;28;20501;-52
2022/10/24 04:56:53;;;;;;;0.93;0.50;;;;;;;;;;5014073;28;20066;-51
2022/10/24 04:59:18;;;;;;;1.60;0.60;;;;;;;;;;5019249;28;20490;-54
2022/10/24 05:01:44;;;;;;;1.13;0.47;;;;;;;;;;5015544;28;20054;-52
2022/10/24 05:04:09;;;;;;;1.60;0.47;;;;;;;;;;5014232;28;20132;-54
2022/10/24 05:06:34;;;;;;;0.80;0.50;;;;;;;;;;5013947;28;20470;-55
2022/10/24 05:09:00;;;;;;;0.90;0.60;;;;;;;;;;5015010;28;20562;-51
2022/10/24 05:11:25;;;;;;;0.80;0.50;;;;;;;;;;5021955;28;20034;-52
2022/10/24 05:13:51;;;;;;;0.60;0.50;;;;;;;;;;5014481;28;20068;-54
2022/10/24 05:16:16;;;;;;;0.80;0.55;;;;;;;;;;5022189;28;20046;-55
2022/10/24 05:18:41;;;;;;;0.95;0.50;;;;;;;;;;5014136;28;20112;-55
2022/10/24 05:21:07;;;;;;;0.85;0.50;;;;;;;;;;5017164;28;20096;-53
2022/10/24 05:23:32;;;;;;;1.08;0.57;;;;;;;;;;5016401;28;20045;-54
2022/10/24 05:25:58;;;;;;;0.75;0.50;;;;;;;;;;5017967;28;20034;-49
2022/10/24 05:28:23;;;;;;;0.68;0.50;;;;;;;;;;5018670;28;20033;-51
2022/10/24 05:30:49;;;;;;;1.60;0.60;;;;;;;;;;5021016;28;20033;-52
2022/10/24 05:33:14;;;;;;;0.55;0.50;;;;;;;;;;5016724;28;20069;-55
2022/10/24 05:35:40;;;;;;;0.60;0.50;;;;;;;;;;5016817;28;20030;-56
2022/10/24 05:38:06;;;;;;;0.60;0.50;;;;;;;;;;5003940;28;20125;-54
2022/10/24 05:40:31;;;;;;;0.75;0.50;;;;;;;;;;5018435;28;20113;-54
2022/10/24 05:42:56;;;;;;;1.15;0.57;;;;;;;;;;5014817;28;20042;-53
2022/10/24 05:45:22;;;;;;;1.27;0.60;;;;;;;;;;5020134;28;20045;-55
2022/10/24 05:47:47;;;;;;;1.00;0.55;;;;;;;;;;5009027;28;20490;-54
2022/10/24 05:50:13;;;;;;;0.77;0.50;;;;;;;;;;5006230;28;20061;-52
2022/10/24 05:52:41;;;;;;;0.88;0.57;;;;;;;;;;5011977;28;20041;-56
2022/10/24 05:55:07;;;;;;;0.73;0.55;;;;;;;;;;5017244;28;20030;-54
2022/10/24 05:57:34;;;;;;;2.00;0.68;;;;;;;;;;5015749;28;20042;-54
2022/10/24 06:00:00;;;;;;;1.17;0.60;;;;;;;;;;5013511;28;20085;-54
2022/10/24 06:02:25;;;;;;;1.38;0.40;;;;;;;;;;5016027;28;20414;-57
2022/10/24 06:04:50;;;;;;;1.10;0.57;;;;;;;;;;5013765;28;20037;-57
2022/10/24 06:07:17;;;;;;;0.93;0.60;;;;;;;;;;5016930;28;20054;-61
2022/10/24 06:09:42;;;;;;;1.02;0.60;;;;;;;;;;5016488;28;20037;-58
2022/10/24 06:12:09;;;;;;;1.02;0.60;;;;;;;;;;5015731;28;20042;-58
2022/10/24 06:14:35;;;;;;;0.75;0.50;;;;;;;;;;5021445;28;20038;-57
2022/10/24 06:17:01;;;;;;;0.95;0.60;;;;;;;;;;5032937;28;20030;-55
2022/10/24 06:19:26;;;;;;;0.93;0.50;;;;;;;;;;5015817;28;20545;-58
2022/10/24 06:21:51;;;;;;;1.60;0.80;;;;;;;;;;5005982;28;20042;-62
2022/10/24 06:24:17;;;;;;;2.13;0.35;;;;;;;;;;5009660;28;20025;-57
2022/10/24 06:26:42;;;;;;;1.55;0.52;;;;;;;;;;5009318;28;20045;-57
2022/10/24 06:29:07;;;;;;;0.77;0.47;;;;;;;;;;5016337;28;20044;-57
2022/10/24 06:31:34;;;;;;;1.63;0.80;;;;;;;;;;5022444;28;20029;-61
2022/10/24 06:34:00;;;;;;;1.02;0.60;;;;;;;;;;5012250;28;20046;-56
2022/10/24 06:36:25;;;;;;;1.10;0.70;;;;;;;;;;5013453;28;20052;-57
2022/10/24 06:38:53;;;;;;;1.15;0.60;;;;;;;;;;5013228;28;20431;-57
2022/10/24 06:41:18;;;;;;;0.80;0.50;;;;;;;;;;5014792;28;20482;-57
2022/10/24 06:43:43;;;;;;;1.00;0.65;;;;;;;;;;5010228;28;20046;-58
2022/10/24 06:46:12;;;;;;;1.27;0.60;;;;;;;;;;5020857;28;20033;-56
2022/10/24 06:48:37;;;;;;;0.88;0.52;;;;;;;;;;5006833;28;20049;-57
2022/10/24 06:51:03;;;;;;;1.00;0.60;;;;;;;;;;5020537;28;20030;-59
2022/10/24 06:53:29;;;;;;;1.17;0.60;;;;;;;;;;5006378;28;20034;-56
2022/10/24 06:55:59;;;;;;;0.98;0.55;;;;;;;;;;5011658;28;20035;-56
2022/10/24 06:58:24;;;;;;;0.60;0.50;;;;;;;;;;5011508;28;20034;-57
2022/10/24 07:00:49;;;;;;;2.50;0.70;;;;;;;;;;5010675;28;20036;-58
2022/10/24 07:03:15;;;;;;;2.60;0.75;;;;;;;;;;5002615;28;20129;-59
2022/10/24 07:05:40;;;;;;;1.15;0.50;;;;;;;;;;5008190;28;20053;-59
2022/10/24 07:08:06;;;;;;;1.08;0.60;;;;;;;;;;5005760;28;20082;-58
2022/10/24 07:10:31;;;;;;;1.25;0.60;;;;;;;;;;4999541;28;20048;-58
2022/10/24 07:12:57;;;;;;;0.95;0.70;;;;;;;;;;5007043;28;20034;-60
2022/10/24 07:15:22;;;;;;;1.33;0.50;;;;;;;;;;5003783;28;20065;-58
2022/10/24 07:17:47;;;;;;;4.43;0.70;;;;;;;;;;5015242;28;20091;-57
2022/10/24 07:20:13;;;;;;;7.55;0.75;;;;;;;;;;5019375;28;20038;-55
2022/10/24 07:22:40;;;;;;;1.85;0.60;;;;;;;;;;5012288;28;20095;-56
2022/10/24 07:25:08;;;;;;;1.63;0.82;;;;;;;;;;5011702;28;20046;-57
2022/10/24 07:27:34;;;;;;;1.00;0.60;;;;;;;;;;5011707;28;20034;-56
2022/10/24 07:29:59;;;;;;;1.95;0.60;;;;;;;;;;5009525;28;20042;-57
2022/10/24 07:32:25;;;;;;;1.05;0.50;;;;;;;;;;5002018;28;20038;-57
2022/10/24 07:34:50;;;;;;;1.02;0.60;;;;;;;;;;5004053;28;20057;-56
2022/10/24 07:37:16;;;;;;;2.20;0.75;;;;;;;;;;5013743;28;20033;-54
2022/10/24 07:39:42;;;;;;;3.22;0.82;;;;;;;;;;5013244;28;20112;-57
2022/10/24 07:42:10;;;;;;;1.17;0.65;;;;;;;;;;4997740;28;20039;-53
2022/10/24 07:44:36;;;;;;;12.98;0.90;;;;;;;;;;5012249;28;20385;-51
2022/10/24 07:47:05;;;;;;;1.20;0.68;;;;;;;;;;5012772;28;20499;-50
2022/10/24 07:49:31;;;;;;;5.28;0.65;;;;;;;;;;5014094;28;20404;-47
2022/10/24 07:51:57;;;;;;;1.00;0.60;;;;;;;;;;5012084;28;20120;-45
2022/10/24 07:54:24;;;;;;;2.28;0.77;;;;;;;;;;5002839;28;20113;-45
2022/10/24 07:56:50;;;;;;;3.40;0.90;;;;;;;;;;5007703;28;20092;-50
2022/10/24 07:59:15;;;;;;;4.63;0.80;;;;;;;;;;5007809;28;20030;-47
2022/10/24 08:01:40;;;;;;;2.03;0.82;;;;;;;;;;5010114;28;20118;-49
2022/10/24 08:04:06;;;;;;;2.35;0.70;;;;;;;;;;5006322;28;20064;-55
2022/10/24 08:06:32;;;;;;;8.27;0.90;;;;;;;;;;5005224;28;20049;-48
2022/10/24 08:08:58;;;;;;;2.10;0.70;;;;;;;;;;5010111;28;20042;-50
2022/10/24 08:11:25;;;;;;;1.95;0.85;;;;;;;;;;5009910;28;20400;-48
2022/10/24 08:13:52;;;;;;;4.10;1.00;;;;;;;;;;5009944;28;20040;-48
2022/10/24 08:16:22;;;;;;;3.83;0.80;;;;;;;;;;5009636;28;20081;-48
2022/10/24 08:18:48;;;;;;;2.72;0.75;;;;;;;;;;5010022;28;20383;-48
2022/10/24 08:21:16;;;;;;;3.95;1.00;;;;;;;;;;5000005;28;20034;-51
2022/10/24 08:23:43;;;;;;;4.30;1.20;;;;;;;;;;4993766;28;20033;-47
2022/10/24 08:26:13;;;;;;;2.10;0.90;;;;;;;;;;5009901;28;20037;-46
2022/10/24 08:28:38;;;;;;;8.10;1.08;;;;;;;;;;5007014;28;20474;-48
2022/10/24 08:31:06;;;;;;;16.52;1.40;;;;;;;;;;5001008;28;20053;-58
2022/10/24 08:33:32;;;;;;;5.30;0.90;;;;;;;;;;5008584;28;20080;-50
2022/10/24 08:36:00;;;;;;;3.58;1.00;;;;;;;;;;5007549;28;20046;-49
2022/10/24 08:38:26;;;;;;;2.70;1.40;;;;;;;;;;5001117;28;20038;-52
2022/10/24 08:40:52;;;;;;;4.32;1.00;;;;;;;;;;5002691;28;20034;-52
2022/10/24 08:43:18;;;;;;;2.92;1.00;;;;;;;;;;5021393;28;20444;-49
2022/10/24 08:46:21;;;;;;;4.20;1.15;;;;;;;;;;5003323;28;20055;-48
2022/10/24 08:48:56;;;;;;;4.20;1.05;;;;;;;;;;5007752;28;20105;-47
2022/10/24 08:51:29;;;;;;;1.83;0.73;;;;;;;;;;5009817;28;20477;-50
2022/10/24 08:53:56;;;;;;;3.75;1.13;;;;;;;;;;5005314;28;20100;-49
2022/10/24 08:56:24;;;;;;;5.50;1.02;;;;;;;;;;5028732;28;20038;-50
2022/10/24 08:58:51;;;;;;;3.97;1.00;;;;;;;;;;5012650;28;20037;-49
2022/10/24 09:01:26;;;;;;;3.40;1.20;;;;;;;;;;5013112;28;20030;-47
2022/10/24 09:03:51;;;;;;;2.83;1.02;;;;;;;;;;5012548;28;20034;-48
2022/10/24 09:06:19;;;;;;;2.15;0.82;;;;;;;;;;5012900;28;20037;-48
2022/10/24 09:08:53;;;;;;;2.50;0.90;;;;;;;;;;5004647;28;20082;-50
2022/10/24 09:11:51;;;;;;;2.03;0.90;;;;;;;;;;5012685;28;20505;-48
2022/10/24 09:14:23;;;;;;;1.75;0.90;;;;;;;;;;5008248;28;20152;-49
2022/10/24 09:17:18;;;;;;;4.50;1.15;;;;;;;;;;5008121;28;20041;-51
2022/10/24 09:19:50;;;;;;;2.10;0.95;;;;;;;;;;5003654;28;20046;-48
2022/10/24 09:22:16;;;;;;;2.10;0.90;;;;;;;;;;5011231;28;20038;-48
2022/10/24 09:24:45;;;;;;;4.60;1.10;;;;;;;;;;5011764;28;20034;-52
2022/10/24 09:27:17;;;;;;;3.13;1.10;;;;;;;;;;5004874;28;20402;-56
2022/10/24 09:29:42;;;;;;;6.72;0.98;;;;;;;;;;5011203;28;20125;-54
2022/10/24 09:32:15;;;;;;;2.35;1.00;;;;;;;;;;5011199;28;20112;-48
2022/10/24 09:34:40;;;;;;;2.17;0.73;;;;;;;;;;5003489;28;20054;-49
2022/10/24 09:37:06;;;;;;;1.35;0.70;;;;;;;;;;5010561;28;20124;-47
2022/10/24 09:39:33;;;;;;;1.63;0.90;;;;;;;;;;5012694;28;20030;-63
2022/10/24 09:41:59;;;;;;;2.92;0.90;;;;;;;;;;5012330;28;20042;-57
2022/10/24 09:44:34;;;;;;;3.75;0.90;;;;;;;;;;5010477;28;20049;-63
2022/10/24 09:47:01;;;;;;;7.22;1.13;;;;;;;;;;5015052;28;20037;-46
2022/10/24 09:49:34;;;;;;;6.03;1.13;;;;;;;;;;5029004;28;20028;-47
2022/10/24 09:52:01;;;;;;;3.22;1.02;;;;;;;;;;5011676;28;20026;-47
2022/10/24 09:54:29;;;;;;;2.83;0.88;;;;;;;;;;5006349;28;20041;-46
2022/10/24 09:57:09;;;;;;;3.75;1.00;;;;;;;;;;5019870;28;20034;-47
2022/10/24 09:59:43;;;;;;;4.00;1.08;;;;;;;;;;5007876;28;20034;-49
2022/10/24 10:02:24;;;;;;;5.82;0.98;;;;;;;;;;5008868;28;20034;-48
2022/10/24 10:05:14;;;;;;;3.70;1.00;;;;;;;;;;5016184;28;20562;-47
2022/10/24 10:07:41;;;;;;;2.35;0.80;;;;;;;;;;5008922;28;20054;-48
2022/10/24 10:10:22;;;;;;;10.85;1.20;;;;;;;;;;5010737;28;20120;-47
2022/10/24 10:13:21;;;;;;;3.10;0.80;;;;;;;;;;5011206;28;20482;-47
2022/10/24 10:15:50;;;;;;;3.22;0.80;;;;;;;;;;4998537;28;20053;-49
2022/10/24 10:18:48;;;;;;;2.30;1.02;;;;;;;;;;4999075;28;20496;-49
2022/10/24 10:21:15;;;;;;;4.40;1.17;;;;;;;;;;5007398;28;20129;-50
2022/10/24 10:23:45;;;;;;;4.07;0.85;;;;;;;;;;4994893;28;20038;-46
2022/10/24 10:26:15;;;;;;;3.70;1.10;;;;;;;;;;4989339;28;20049;-48
2022/10/24 10:28:46;;;;;;;8.30;1.15;;;;;;;;;;5008565;28;20037;-49
2022/10/24 10:31:12;;;;;;;2.55;1.08;;;;;;;;;;5011098;28;20045;-48
2022/10/24 10:33:52;;;;;;;7.78;0.82;;;;;;;;;;5009604;28;20448;-50
2022/10/24 10:36:33;;;;;;;2.83;0.93;;;;;;;;;;5004352;28;20037;-49
2022/10/24 10:39:08;;;;;;;1.67;0.77;;;;;;;;;;5015336;28;20472;-48
2022/10/24 10:41:55;;;;;;;2.30;1.00;;;;;;;;;;5009995;28;20108;-48
2022/10/24 10:44:30;;;;;;;3.80;0.90;;;;;;;;;;5002332;28;20052;-48
2022/10/24 10:47:21;;;;;;;5.90;0.93;;;;;;;;;;5007464;28;20041;-48
2022/10/24 10:49:51;;;;;;;3.75;0.82;;;;;;;;;;5010693;28;20049;-52
2022/10/24 10:52:29;;;;;;;3.45;0.90;;;;;;;;;;4991025;28;20138;-57
2022/10/24 10:55:19;;;;;;;1.95;0.90;;;;;;;;;;5007954;28;20045;-51
2022/10/24 10:58:05;;;;;;;2.95;1.10;;;;;;;;;;5011037;28;20030;-49
2022/10/24 11:00:49;;;;;;;3.25;1.05;;;;;;;;;;4999424;28;20080;-48
2022/10/24 11:03:44;;;;;;;3.67;0.90;;;;;;;;;;4999670;28;20030;-47
2022/10/24 11:06:21;;;;;;;2.17;0.98;;;;;;;;;;5009551;28;20394;-49
2022/10/24 11:08:46;;;;;;;4.22;0.80;;;;;;;;;;5009823;28;20041;-51
2022/10/24 11:11:15;;;;;;;3.33;1.00;;;;;;;;;;5005549;28;20117;-51
2022/10/24 11:13:47;;;;;;;2.85;0.85;;;;;;;;;;4995281;28;20061;-48
2022/10/24 11:16:18;;;;;;;1.63;0.70;;;;;;;;;;5025343;28;20046;-47
2022/10/24 11:18:47;;;;;;;4.10;0.90;;;;;;;;;;5009137;28;20476;-49
2022/10/24 11:21:14;;;;;;;2.10;0.90;;;;;;;;;;4999125;28;20045;-48
2022/10/24 11:24:11;;;;;;;2.38;0.90;;;;;;;;;;4998858;28;20061;-57
2022/10/24 11:26:57;;;;;;;2.80;0.98;;;;;;;;;;5032674;28;20037;-59
2022/10/24 11:29:28;;;;;;;2.03;0.90;;;;;;;;;;5014005;28;20034;-50
2022/10/24 11:32:00;;;;;;;5.43;0.90;;;;;;;;;;5012300;28;20482;-47
2022/10/24 11:34:37;;;;;;;2.17;0.73;;;;;;;;;;5005547;28;20069;-50
2022/10/24 11:37:16;;;;;;;8.10;1.60;;;;;;;;;;5025898;28;20402;-54
2022/10/24 11:40:04;;;;;;;2.97;1.00;;;;;;;;;;5010582;28;20041;-46
2022/10/24 11:42:49;;;;;;;5.97;0.80;;;;;;;;;;5006397;28;20050;-47
2022/10/24 11:45:17;;;;;;;3.70;1.10;;;;;;;;;;5011553;28;20489;-46
2022/10/24 11:48:10;;;;;;;5.40;0.93;;;;;;;;;;5006503;28;20034;-47
2022/10/24 11:51:08;;;;;;;4.82;1.13;;;;;;;;;;5015619;28;20030;-49
2022/10/24 11:53:34;;;;;;;2.30;0.82;;;;;;;;;;5007557;28;20553;-52
2022/10/24 11:56:43;;;;;;;4.43;0.90;;;;;;;;;;5013637;28;20069;-48
2022/10/24 11:59:14;;;;;;;2.40;0.82;;;;;;;;;;4999643;28;20049;-47
2022/10/24 12:02:08;;;;;;;1.77;0.80;;;;;;;;;;5015567;28;20513;-48
2022/10/24 12:05:04;;;;;;;4.57;1.00;;;;;;;;;;5009635;28;20030;-48
2022/10/24 12:07:52;;;;;;;6.25;1.02;;;;;;;;;;5005883;28;20410;-47
2022/10/24 12:10:39;;;;;;;5.18;0.95;;;;;;;;;;5004448;28;20034;-48
2022/10/24 12:13:19;;;;;;;3.78;0.93;;;;;;;;;;5011973;28;20125;-50
2022/10/24 12:16:06;;;;;;;4.25;0.90;;;;;;;;;;5021151;28;20453;-47
2022/10/24 12:18:43;;;;;;;3.05;0.80;;;;;;;;;;5011270;28;20038;-47
2022/10/24 12:21:14;;;;;;;1.77;0.80;;;;;;;;;;5005357;28;20129;-47
2022/10/24 12:23:41;;;;;;;3.15;0.80;;;;;;;;;;5007074;28;20042;-51
2022/10/24 12:26:12;;;;;;;2.83;0.80;;;;;;;;;;5035327;28;20045;-48
2022/10/24 12:28:38;;;;;;;1.77;0.80;;;;;;;;;;5014999;28;20057;-47
2022/10/24 12:31:08;;;;;;;5.72;0.80;;;;;;;;;;5015225;28;20033;-47
2022/10/24 12:33:33;;;;;;;7.18;1.13;;;;;;;;;;5012438;28;20053;-48
2022/10/24 12:35:59;;;;;;;6.10;1.10;;;;;;;;;;5013092;28;20394;-49
2022/10/24 12:38:27;;;;;;;3.60;1.77;;;;;;;;;;5017349;28;20046;-48
2022/10/24 12:41:05;;;;;;;5.82;0.85;;;;;;;;;;5008107;28;20041;-48
2022/10/24 12:43:41;;;;;;;6.68;0.85;;;;;;;;;;5019832;28;20033;-48
2022/10/24 12:46:15;;;;;;;3.60;0.90;;;;;;;;;;5008406;28;20048;-47
2022/10/24 12:48:44;;;;;;;2.70;0.80;;;;;;;;;;5008988;28;20034;-47
2022/10/24 12:51:31;;;;;;;3.28;1.15;;;;;;;;;;5014087;28;20500;-48
2022/10/24 12:54:13;;;;;;;2.15;0.73;;;;;;;;;;5028087;28;20034;-49
2022/10/24 12:56:50;;;;;;;5.60;1.00;;;;;;;;;;5018367;28;20037;-48
2022/10/24 12:59:18;;;;;;;1.75;0.75;;;;;;;;;;4994497;28;20125;-57
2022/10/24 13:01:45;;;;;;;4.85;0.90;;;;;;;;;;4995853;28;20030;-47
2022/10/24 13:04:31;;;;;;;2.03;0.88;;;;;;;;;;4995047;28;20080;-47
2022/10/24 13:07:19;;;;;;;5.55;1.00;;;;;;;;;;5008488;28;20081;-48
2022/10/24 13:10:20;;;;;;;4.68;1.30;;;;;;;;;;5005082;28;20056;-57
2022/10/24 13:12:51;;;;;;;3.13;0.88;;;;;;;;;;5009633;28;20041;-55
2022/10/24 13:15:29;;;;;;;4.10;0.93;;;;;;;;;;5011188;28;20042;-50
2022/10/24 13:17:58;;;;;;;3.58;1.00;;;;;;;;;;5016982;28;20057;-49
2022/10/24 13:20:27;;;;;;;4.38;1.00;;;;;;;;;;5025935;28;20045;-47
2022/10/24 13:23:15;;;;;;;3.70;0.93;;;;;;;;;;5003207;28;20450;-46
2022/10/24 13:25:41;;;;;;;2.92;0.93;;;;;;;;;;5018538;28;20046;-47
2022/10/24 13:28:18;;;;;;;2.15;0.80;;;;;;;;;;5011694;28;20040;-48
2022/10/24 13:30:48;;;;;;;3.65;0.82;;;;;;;;;;5017766;28;20045;-46
2022/10/24 13:33:29;;;;;;;4.22;0.80;;;;;;;;;;5011225;28;20370;-46
2022/10/24 13:36:13;;;;;;;1.73;0.70;;;;;;;;;;5015394;28;20405;-46
2022/10/24 13:39:00;;;;;;;2.65;0.80;;;;;;;;;;5015411;28;20042;-47
2022/10/24 13:41:39;;;;;;;2.40;0.70;;;;;;;;;;5012160;28;20041;-50
2022/10/24 13:44:27;;;;;;;3.03;0.80;;;;;;;;;;5014146;28;20055;-48
2022/10/24 13:47:15;;;;;;;3.85;0.82;;;;;;;;;;5009500;28;20504;-48
2022/10/24 13:49:49;;;;;;;1.30;0.70;;;;;;;;;;5011615;28;20053;-46
2022/10/24 13:52:25;;;;;;;2.45;0.90;;;;;;;;;;5030431;28;20088;-47
2022/10/24 13:55:17;;;;;;;0.82;0.50;;;;;;;;;;5019540;28;20072;-47
2022/10/24 13:57:54;;;;;;;3.78;0.68;;;;;;;;;;5012813;28;20077;-47
2022/10/24 14:00:32;;;;;;;1.88;0.55;;;;;;;;;;5018294;28;20029;-47
2022/10/24 14:03:01;;;;;;;3.90;0.80;;;;;;;;;;5006549;28;20040;-60
2022/10/24 14:05:34;;;;;;;4.63;0.60;;;;;;;;;;5038479;28;20033;-48
2022/10/24 14:08:00;;;;;;;2.45;0.73;;;;;;;;;;5006466;28;20624;-61
2022/10/24 14:10:26;;;;;;;1.60;0.70;;;;;;;;;;5017009;28;20052;-52
2022/10/24 14:12:55;;;;;;;3.83;0.60;;;;;;;;;;5013904;28;20092;-48
2022/10/24 14:15:31;;;;;;;2.28;0.70;;;;;;;;;;5014954;28;20042;-54
2022/10/24 14:18:00;;;;;;;1.35;0.77;;;;;;;;;;5015603;28;20116;-50
2022/10/24 14:20:29;;;;;;;2.20;1.00;;;;;;;;;;5019133;28;20037;-52
2022/10/24 14:22:55;;;;;;;1.55;0.73;;;;;;;;;;5015511;28;20458;-49
2022/10/24 14:25:22;;;;;;;1.38;0.60;;;;;;;;;;5016448;28;20045;-49
2022/10/24 14:27:48;;;;;;;3.88;0.90;;;;;;;;;;5008535;28;20478;-49
2022/10/24 14:30:22;;;;;;;2.92;1.08;;;;;;;;;;5014735;28;20109;-52
2022/10/24 14:32:47;;;;;;;1.58;0.60;;;;;;;;;;5002918;28;20120;-50
2022/10/24 14:35:13;;;;;;;1.08;0.60;;;;;;;;;;5010693;28;20042;-51
2022/10/24 14:37:40;;;;;;;1.58;0.50;;;;;;;;;;5013884;28;20093;-49
2022/10/24 14:40:13;;;;;;;2.33;0.90;;;;;;;;;;5013344;28;20040;-49
2022/10/24 14:42:39;;;;;;;3.97;0.75;;;;;;;;;;5006292;28;20121;-50
2022/10/24 14:45:05;;;;;;;3.35;0.90;;;;;;;;;;5014695;28;20120;-51
2022/10/24 14:47:35;;;;;;;2.53;0.80;;;;;;;;;;5014880;28;20041;-49
2022/10/24 14:50:00;;;;;;;2.15;0.70;;;;;;;;;;5015695;28;20030;-48
2022/10/24 14:52:27;;;;;;;1.88;0.80;;;;;;;;;;5018699;28;20044;-50
2022/10/24 14:55:24;;;;;;;2.15;0.88;;;;;;;;;;5017926;28;20050;-51
2022/10/24 14:57:50;;;;;;;1.80;0.55;;;;;;;;;;4998677;28;20405;-51
2022/10/24 15:00:24;;;;;;;2.97;0.80;;;;;;;;;;5018003;28;20109;-49
2022/10/24 15:02:52;;;;;;;5.88;0.90;;;;;;;;;;5010336;28;20034;-53
2022/10/24 15:05:21;;;;;;;4.40;0.60;;;;;;;;;;5031886;28;20462;-48